Time;durP1;ratioP1;P1;durP2;ratioP2;P2;SDS_P1;SDS_P2;PMS_P1;PMS_P2;Temp;Humidity;BMP_temperature;BMP_pressure;BME280_temperature;BME280_humidity;BME280_pressure;Samples;Min_cycle;Max_cycle;Signal;HPM_P1;HPM_P2
2023/05/26 00:00:18;;;;;;;4.03;3.63;;;12.60;99.90;;;;;;4927873;28;20455;-89
2023/05/26 00:02:45;;;;;;;6.00;3.40;;;12.50;99.90;;;;;;4957368;28;21732;-89
2023/05/26 00:05:13;;;;;;;11.10;4.38;;;12.50;99.90;;;;;;4952529;28;22265;-89
2023/05/26 00:07:40;;;;;;;7.40;3.37;;;12.50;99.90;;;;;;4935193;28;20212;-88
2023/05/26 00:10:07;;;;;;;4.45;3.83;;;12.50;99.90;;;;;;4945818;28;20554;-88
2023/05/26 00:12:33;;;;;;;6.85;3.28;;;12.50;99.90;;;;;;4958048;28;20220;-88
2023/05/26 00:14:58;;;;;;;4.50;3.07;;;12.40;99.90;;;;;;4955976;28;20290;-89
2023/05/26 00:17:24;;;;;;;5.10;3.50;;;12.40;99.90;;;;;;4958188;28;20506;-89
2023/05/26 00:19:52;;;;;;;6.75;4.15;;;12.30;99.90;;;;;;4953698;28;20278;-86
2023/05/26 00:22:18;;;;;;;8.63;3.20;;;;;;;;;;4934614;28;20219;-87
2023/05/26 00:24:47;;;;;;;9.88;3.75;;;12.20;99.90;;;;;;4939682;28;20427;-88
2023/05/26 00:27:13;;;;;;;6.35;3.25;;;12.20;99.90;;;;;;4949773;28;20212;-89
2023/05/26 00:29:39;;;;;;;5.93;4.00;;;12.30;99.90;;;;;;4958190;28;20270;-89
2023/05/26 00:32:05;;;;;;;5.13;3.40;;;12.30;99.90;;;;;;4955849;28;20239;-88
2023/05/26 00:34:33;;;;;;;7.57;3.30;;;12.30;99.90;;;;;;4956734;28;20523;-88
2023/05/26 00:36:59;;;;;;;5.43;3.45;;;12.50;99.90;;;;;;4942757;28;20215;-89
2023/05/26 00:39:25;;;;;;;7.23;3.70;;;;;;;;;;4960861;28;20262;-88
2023/05/26 00:41:51;;;;;;;10.33;6.03;;;12.70;99.90;;;;;;4947944;28;20519;-88
2023/05/26 00:44:17;;;;;;;5.70;3.67;;;12.40;99.90;;;;;;4934975;28;20446;-87
2023/05/26 00:46:43;;;;;;;9.63;4.33;;;;;;;;;;4957729;28;20453;-88
2023/05/26 00:49:08;;;;;;;9.80;3.10;;;13.00;99.90;;;;;;4939937;28;20192;-87
2023/05/26 00:51:35;;;;;;;6.87;4.27;;;;;;;;;;4959849;28;20543;-87
2023/05/26 00:54:01;;;;;;;5.07;3.40;;;;;;;;;;4960772;28;20196;-86
2023/05/26 00:56:28;;;;;;;7.07;4.20;;;13.30;99.90;;;;;;4963154;28;20522;-86
2023/05/26 00:58:54;;;;;;;7.93;4.33;;;;;;;;;;4949442;28;20455;-86
2023/05/26 01:01:20;;;;;;;8.87;4.17;;;13.30;99.90;;;;;;4935668;28;20482;-89
2023/05/26 01:03:47;;;;;;;7.60;3.60;;;;;;;;;;4931446;28;20443;-85
2023/05/26 01:06:13;;;;;;;7.40;3.80;;;;;;;;;;4951754;28;20207;-86
2023/05/26 01:08:38;;;;;;;8.10;3.40;;;13.60;99.90;;;;;;4955937;28;20454;-88
2023/05/26 01:11:13;;;;;;;6.13;3.60;;;13.60;99.90;;;;;;4953332;28;20466;-87
2023/05/26 01:13:53;;;;;;;5.83;4.10;;;13.70;99.90;;;;;;4938326;28;20977;-88
2023/05/26 01:16:22;;;;;;;10.23;4.43;;;13.70;99.90;;;;;;4956138;28;20434;-87
2023/05/26 01:18:54;;;;;;;9.97;5.03;;;13.70;99.90;;;;;;4937822;28;20459;-86
2023/05/26 01:21:21;;;;;;;7.57;3.30;;;13.80;99.90;;;;;;4959254;28;20450;-87
2023/05/26 01:24:11;;;;;;;6.53;4.03;;;13.80;99.90;;;;;;4941618;28;20464;-88
2023/05/26 01:26:48;;;;;;;9.97;4.87;;;13.70;99.90;;;;;;4938946;28;20926;-86
2023/05/26 01:29:20;;;;;;;7.77;3.60;;;13.80;99.90;;;;;;4934426;28;20609;-86
2023/05/26 01:31:46;;;;;;;7.73;4.00;;;13.60;99.90;;;;;;4934813;28;20463;-87
2023/05/26 01:34:11;;;;;;;5.07;3.43;;;13.60;99.90;;;;;;4955714;28;20439;-88
2023/05/26 01:36:37;;;;;;;10.37;3.67;;;13.60;99.90;;;;;;4957605;28;20176;-88
2023/05/26 01:39:04;;;;;;;5.50;3.73;;;13.40;99.90;;;;;;4950067;28;20208;-87
2023/05/26 01:41:56;;;;;;;8.90;3.53;;;13.40;99.90;;;;;;4954029;28;20188;-88
2023/05/26 01:44:44;;;;;;;12.80;5.07;;;13.30;99.90;;;;;;4952931;28;20448;-86
2023/05/26 01:47:13;;;;;;;13.13;4.93;;;13.10;99.90;;;;;;4959813;28;20529;-87
2023/05/26 01:49:42;;;;;;;8.93;4.37;;;13.00;99.90;;;;;;4954618;28;20434;-87
2023/05/26 01:52:10;;;;;;;9.70;3.87;;;13.10;99.90;;;;;;4935287;28;20822;-88
2023/05/26 01:54:51;;;;;;;6.50;3.97;;;13.10;99.90;;;;;;4944876;28;20436;-89
2023/05/26 01:57:18;;;;;;;19.00;4.50;;;13.20;99.90;;;;;;4958921;28;20505;-87
2023/05/26 01:59:43;;;;;;;6.97;3.80;;;13.20;99.90;;;;;;4941180;28;20427;-88
2023/05/26 02:02:09;;;;;;;16.70;4.70;;;13.20;99.90;;;;;;4943163;28;20498;-85
2023/05/26 02:04:36;;;;;;;5.60;3.93;;;13.30;99.90;;;;;;4954703;28;20685;-89
2023/05/26 02:07:05;;;;;;;7.13;4.60;;;13.30;99.90;;;;;;4958579;28;20176;-86
2023/05/26 02:09:31;;;;;;;6.17;4.70;;;13.30;99.90;;;;;;4961438;28;20932;-88
2023/05/26 02:11:57;;;;;;;7.70;4.13;;;13.40;99.90;;;;;;4943965;28;20462;-87
2023/05/26 02:14:22;;;;;;;13.10;4.50;;;13.40;99.90;;;;;;4938926;28;21041;-88
2023/05/26 02:16:48;;;;;;;7.23;3.50;;;13.40;99.90;;;;;;4951909;28;20191;-86
2023/05/26 02:19:14;;;;;;;5.43;3.97;;;13.40;99.90;;;;;;4960894;28;20401;-86
2023/05/26 02:21:40;;;;;;;4.00;3.00;;;;;;;;;;4960036;28;21127;-88
2023/05/26 02:24:06;;;;;;;7.23;4.27;;;13.40;99.90;;;;;;4940258;28;20498;-87
2023/05/26 02:26:31;;;;;;;12.83;3.90;;;13.40;99.90;;;;;;4942537;28;22670;-88
2023/05/26 02:28:57;;;;;;;11.60;4.80;;;13.40;99.90;;;;;;4963378;28;20215;-86
2023/05/26 02:31:23;;;;;;;6.30;4.30;;;13.30;99.90;;;;;;4961958;28;20200;-88
2023/05/26 02:33:50;;;;;;;8.83;4.00;;;13.30;99.90;;;;;;4968646;28;20181;-87
2023/05/26 02:36:16;;;;;;;9.67;4.07;;;;;;;;;;4948280;28;20560;-88
2023/05/26 02:38:42;;;;;;;8.00;4.63;;;;;;;;;;4949909;28;20978;-87
2023/05/26 02:41:08;;;;;;;7.83;3.70;;;13.30;99.90;;;;;;4953398;28;20431;-89
2023/05/26 02:43:34;;;;;;;10.67;4.60;;;13.30;99.90;;;;;;4958067;28;20895;-87
2023/05/26 02:46:00;;;;;;;6.30;4.67;;;13.30;99.90;;;;;;4951418;28;20462;-87
2023/05/26 02:48:25;;;;;;;5.23;4.20;;;13.20;99.90;;;;;;4958732;28;20463;-87
2023/05/26 02:50:52;;;;;;;8.50;4.93;;;13.20;99.90;;;;;;4963292;28;20837;-87
2023/05/26 02:53:18;;;;;;;6.83;3.47;;;13.10;99.90;;;;;;4962550;28;20198;-88
2023/05/26 02:55:44;;;;;;;10.37;3.70;;;13.00;99.90;;;;;;4961925;28;20436;-89
2023/05/26 02:58:10;;;;;;;8.57;5.27;;;13.00;99.90;;;;;;4944641;28;20468;-88
2023/05/26 03:00:36;;;;;;;5.63;3.38;;;13.00;99.90;;;;;;4941889;28;20681;-86
2023/05/26 03:03:02;;;;;;;8.37;5.00;;;;;;;;;;4957107;28;20183;-86
2023/05/26 03:05:28;;;;;;;6.70;4.30;;;13.00;99.90;;;;;;4953457;28;20235;-86
2023/05/26 03:07:53;;;;;;;7.17;4.10;;;13.00;99.90;;;;;;4943599;28;20508;-87
2023/05/26 03:10:19;;;;;;;5.90;4.30;;;12.90;99.90;;;;;;4941112;28;20287;-86
2023/05/26 03:12:45;;;;;;;13.93;4.00;;;;;;;;;;4927349;28;20207;-89
2023/05/26 03:15:11;;;;;;;6.93;4.50;;;13.00;99.90;;;;;;4956276;28;20264;-88
2023/05/26 03:17:37;;;;;;;5.83;3.83;;;13.00;99.90;;;;;;4952317;28;21702;-88
2023/05/26 03:20:04;;;;;;;4.00;3.60;;;13.00;99.90;;;;;;4954206;28;20443;-88
2023/05/26 03:22:29;;;;;;;8.40;4.40;;;12.90;99.90;;;;;;4954384;28;20186;-88
2023/05/26 03:24:55;;;;;;;6.40;3.63;;;12.90;99.90;;;;;;4931175;28;20431;-88
2023/05/26 03:27:22;;;;;;;9.57;4.70;;;12.90;99.90;;;;;;4936342;28;20266;-89
2023/05/26 03:29:48;;;;;;;14.32;4.93;;;12.90;99.90;;;;;;4952460;28;20173;-89
2023/05/26 03:32:13;;;;;;;11.30;4.22;;;12.80;99.90;;;;;;4933405;28;20302;-88
2023/05/26 03:34:39;;;;;;;6.87;4.23;;;12.80;99.90;;;;;;4936784;28;20198;-88
2023/05/26 03:37:06;;;;;;;6.23;4.30;;;12.90;99.90;;;;;;4947212;28;20211;-86
2023/05/26 03:39:31;;;;;;;16.33;5.20;;;12.90;99.90;;;;;;4950561;28;20179;-87
2023/05/26 03:41:57;;;;;;;6.80;4.67;;;12.90;99.90;;;;;;4942109;28;20450;-87
2023/05/26 03:44:23;;;;;;;8.13;4.83;;;12.80;99.90;;;;;;4948420;28;20192;-87
2023/05/26 03:46:48;;;;;;;9.00;5.40;;;12.80;99.90;;;;;;4954847;28;20644;-86
2023/05/26 03:49:14;;;;;;;8.27;5.20;;;;;;;;;;4935717;28;20574;-88
2023/05/26 03:51:40;;;;;;;7.50;5.50;;;13.00;99.90;;;;;;4935213;28;20215;-87
2023/05/26 03:54:06;;;;;;;14.63;4.90;;;13.20;99.90;;;;;;4935143;28;20447;-87
2023/05/26 03:56:32;;;;;;;7.57;4.77;;;;;;;;;;4953438;28;20475;-87
2023/05/26 03:58:57;;;;;;;7.30;4.07;;;13.40;99.90;;;;;;4941222;28;20827;-86
2023/05/26 04:01:24;;;;;;;6.30;4.23;;;13.60;99.90;;;;;;4949857;28;20447;-88
2023/05/26 04:03:49;;;;;;;8.53;4.00;;;14.30;99.90;;;;;;4933264;28;20634;-89
2023/05/26 04:06:15;;;;;;;6.53;5.50;;;13.70;99.90;;;;;;4929758;28;22629;-88
2023/05/26 04:08:40;;;;;;;8.80;4.60;;;13.90;99.90;;;;;;4940845;28;20297;-87
2023/05/26 04:11:06;;;;;;;6.63;4.07;;;13.90;99.90;;;;;;4949006;28;21498;-87
2023/05/26 04:13:36;;;;;;;8.20;4.77;;;14.10;99.90;;;;;;4938868;28;20204;-88
2023/05/26 04:16:01;;;;;;;7.23;4.00;;;14.10;99.90;;;;;;4950725;28;20210;-89
2023/05/26 04:18:27;;;;;;;8.07;4.80;;;;;;;;;;4927478;28;20459;-85
2023/05/26 04:20:53;;;;;;;6.23;4.10;;;14.70;99.90;;;;;;4957015;28;20187;-88
2023/05/26 04:23:19;;;;;;;4.93;3.37;;;;;;;;;;4957986;28;20447;-85
2023/05/26 04:25:44;;;;;;;7.97;4.27;;;17.10;99.90;;;;;;4938256;28;20199;-88
2023/05/26 04:28:10;;;;;;;6.10;4.37;;;18.40;99.90;;;;;;4933554;28;20466;-88
2023/05/26 04:30:39;;;;;;;9.70;4.17;;;19.80;99.90;;;;;;4953030;28;20180;-86
2023/05/26 04:33:05;;;;;;;10.10;5.00;;;22.20;99.90;;;;;;4940981;28;20200;-85
2023/05/26 04:35:33;;;;;;;7.60;4.00;;;;;;;;;;4932057;28;20439;-86
2023/05/26 04:37:59;;;;;;;7.87;4.30;;;;;;;;;;4953835;28;20525;-88
2023/05/26 04:40:25;;;;;;;6.50;4.70;;;;;;;;;;4953466;28;20496;-87
2023/05/26 04:42:51;;;;;;;4.37;3.93;;;;;;;;;;4951244;28;20471;-90
2023/05/26 04:45:18;;;;;;;5.33;4.83;;;;;;;;;;4937981;28;21023;-89
2023/05/26 04:47:44;;;;;;;12.33;4.77;;;24.50;91.90;;;;;;4929302;28;20968;-89
2023/05/26 04:50:16;;;;;;;7.90;5.03;;;24.10;91.10;;;;;;4951265;28;20454;-88
2023/05/26 04:52:42;;;;;;;10.30;5.27;;;23.90;90.90;;;;;;4956063;28;21063;-88
2023/05/26 04:55:08;;;;;;;11.20;4.70;;;24.00;91.00;;;;;;4955756;28;20446;-86
2023/05/26 04:57:34;;;;;;;7.40;5.13;;;;;;;;;;4935408;28;20553;-86
2023/05/26 05:00:00;;;;;;;7.43;4.30;;;;;;;;;;4932064;28;21050;-90
2023/05/26 05:02:26;;;;;;;7.10;5.00;;;26.60;83.40;;;;;;4963699;28;20940;-87
2023/05/26 05:04:52;;;;;;;11.03;5.17;;;27.50;78.70;;;;;;4951879;28;20466;-88
2023/05/26 05:07:18;;;;;;;9.73;5.70;;;;;;;;;;4954371;28;20214;-88
2023/05/26 05:09:44;;;;;;;7.77;4.90;;;;;;;;;;4957880;28;22075;-88
2023/05/26 05:12:10;;;;;;;6.13;5.53;;;;;;;;;;4965267;28;21057;-88
2023/05/26 05:14:36;;;;;;;6.20;5.53;;;;;;;;;;4944573;28;20463;-89
2023/05/26 05:17:02;;;;;;;8.90;5.60;;;;;;;;;;4966127;28;20449;-89
2023/05/26 05:19:28;;;;;;;7.33;5.43;;;;;;;;;;4991421;28;20416;-89
2023/05/26 05:21:55;;;;;;;6.87;5.70;;;;;;;;;;4972270;28;20525;-87
2023/05/26 05:24:20;;;;;;;8.43;5.47;;;;;;;;;;4948338;28;20442;-88
2023/05/26 05:26:46;;;;;;;10.13;6.67;;;;;;;;;;4942304;28;20453;-86
2023/05/26 05:29:12;;;;;;;7.97;5.50;;;;;;;;;;4937516;28;20444;-87
2023/05/26 05:31:38;;;;;;;6.53;5.50;;;;;;;;;;4959354;28;20506;-87
2023/05/26 05:34:04;;;;;;;8.90;5.13;;;29.40;56.70;;;;;;4952934;28;20432;-85
2023/05/26 05:36:31;;;;;;;5.50;5.00;;;;;;;;;;4933247;28;20445;-85
2023/05/26 05:38:57;;;;;;;7.23;5.90;;;;;;;;;;4971483;28;20220;-87
2023/05/26 05:41:23;;;;;;;8.70;5.90;;;;;;;;;;4953929;28;20495;-88
2023/05/26 05:43:49;;;;;;;9.13;5.50;;;;;;;;;;4939143;28;20443;-86
2023/05/26 05:46:15;;;;;;;17.17;7.30;;;;;;;;;;4948400;28;20436;-89
2023/05/26 05:48:42;;;;;;;11.10;5.90;;;;;;;;;;4944502;28;20458;-89
2023/05/26 05:51:08;;;;;;;8.67;5.57;;;29.70;54.10;;;;;;4963387;28;20430;-85
2023/05/26 05:53:34;;;;;;;5.90;4.73;;;29.80;54.80;;;;;;4961832;28;20834;-89
2023/05/26 05:55:59;;;;;;;7.47;5.97;;;30.70;53.10;;;;;;4957002;28;20465;-88
2023/05/26 05:58:25;;;;;;;7.93;6.00;;;;;;;;;;4942859;28;20241;-90
2023/05/26 06:00:51;;;;;;;10.30;6.30;;;;;;;;;;4944436;28;20192;-90
2023/05/26 06:03:17;;;;;;;7.13;5.13;;;;;;;;;;4933039;28;20441;-90
2023/05/26 06:05:43;;;;;;;7.60;6.13;;;;;;;;;;4959495;28;20441;-89
2023/05/26 06:08:09;;;;;;;8.17;4.80;;;;;;;;;;4947848;28;20450;-90
2023/05/26 06:10:35;;;;;;;11.60;6.00;;;;;;;;;;4952413;28;20443;-90
2023/05/26 06:13:01;;;;;;;8.73;6.00;;;;;;;;;;4954625;28;21077;-89
2023/05/26 06:15:27;;;;;;;9.10;6.80;;;;;;;;;;4953361;28;20531;-90
2023/05/26 06:17:53;;;;;;;10.10;6.20;;;;;;;;;;4959335;28;20577;-90
2023/05/26 06:20:19;;;;;;;9.57;6.10;;;;;;;;;;4964710;28;20511;-89
2023/05/26 06:22:45;;;;;;;9.20;5.93;;;31.80;51.10;;;;;;4946012;28;20504;-90
2023/05/26 06:25:11;;;;;;;6.57;5.90;;;;;;;;;;4951047;28;20448;-89
2023/05/26 06:27:37;;;;;;;9.70;6.13;;;;;;;;;;4951947;28;20214;-90
2023/05/26 06:30:03;;;;;;;10.07;6.90;;;;;;;;;;4960732;28;20437;-89
2023/05/26 06:32:29;;;;;;;9.50;6.33;;;;;;;;;;4962421;28;20475;-88
2023/05/26 06:34:55;;;;;;;8.93;6.90;;;;;;;;;;4949629;28;20444;-89
2023/05/26 06:37:21;;;;;;;7.73;6.20;;;;;;;;;;4946208;28;20454;-89
2023/05/26 06:39:47;;;;;;;9.00;6.40;;;;;;;;;;4965037;28;20522;-90
2023/05/26 06:42:15;;;;;;;10.60;7.03;;;32.00;48.60;;;;;;4950580;28;20526;-89
2023/05/26 06:44:41;;;;;;;10.70;7.57;;;;;;;;;;4959931;28;20442;-89
2023/05/26 06:47:08;;;;;;;14.40;7.10;;;32.80;47.10;;;;;;4951085;28;20528;-89
2023/05/26 06:49:34;;;;;;;11.73;7.70;;;;;;;;;;4963040;28;20519;-89
2023/05/26 06:52:00;;;;;;;7.63;6.83;;;;;;;;;;4947289;28;20473;-89
2023/05/26 06:54:26;;;;;;;9.60;7.43;;;;;;;;;;4944402;28;20444;-89
2023/05/26 06:56:52;;;;;;;11.40;6.93;;;;;;;;;;4965158;28;20924;-88
2023/05/26 06:59:18;;;;;;;9.60;8.63;;;;;;;;;;4968532;28;20442;-88
2023/05/26 07:01:44;;;;;;;9.33;8.40;;;;;;;;;;4948921;28;21286;-90
2023/05/26 07:04:10;;;;;;;11.07;8.63;;;;;;;;;;4949232;28;20501;-89
2023/05/26 07:06:36;;;;;;;9.93;8.77;;;;;;;;;;4950967;28;20496;-90
2023/05/26 07:09:02;;;;;;;11.33;8.87;;;;;;;;;;4961549;28;21203;-89
2023/05/26 07:11:28;;;;;;;15.20;8.97;;;;;;;;;;4969097;28;20445;-88
2023/05/26 07:13:54;;;;;;;11.43;8.93;;;;;;;;;;4950039;28;20437;-89
2023/05/26 07:16:20;;;;;;;9.27;8.33;;;;;;;;;;4951233;28;20430;-90
2023/05/26 07:18:46;;;;;;;13.33;9.20;;;;;;;;;;4966045;28;20452;-90
2023/05/26 07:21:14;;;;;;;13.37;8.43;;;;;;;;;;4970687;28;20476;-89
2023/05/26 07:23:40;;;;;;;12.03;9.67;;;;;;;;;;4982687;28;20449;-87
2023/05/26 07:26:06;;;;;;;10.70;8.93;;;;;;;;;;4946843;28;20432;-90
2023/05/26 07:28:32;;;;;;;9.50;8.50;;;;;;;;;;4956682;28;20492;-88
2023/05/26 07:30:58;;;;;;;9.27;8.40;;;;;;;;;;4970049;28;20459;-89
2023/05/26 07:33:24;;;;;;;9.30;8.40;;;;;;;;;;4948049;28;20466;-87
2023/05/26 07:35:50;;;;;;;10.87;9.87;;;;;;;;;;4945203;28;20459;-89
2023/05/26 07:38:17;;;;;;;10.47;9.40;;;;;;;;;;4961930;28;20910;-89
2023/05/26 07:40:43;;;;;;;12.10;8.70;;;;;;;;;;4944675;28;20437;-89
2023/05/26 07:43:12;;;;;;;10.33;9.33;;;35.20;41.70;;;;;;4948896;28;20852;-88
2023/05/26 07:45:38;;;;;;;17.87;11.07;;;;;;;;;;4964699;28;20452;-89
2023/05/26 07:48:04;;;;;;;16.13;9.57;;;;;;;;;;4967598;28;20463;-89
2023/05/26 07:50:30;;;;;;;10.30;9.20;;;;;;;;;;4963645;28;20439;-89
2023/05/26 07:52:56;;;;;;;10.23;8.20;;;;;;;;;;4958500;28;20623;-90
2023/05/26 07:55:22;;;;;;;10.37;9.27;;;;;;;;;;4976557;28;20426;-89
2023/05/26 07:57:48;;;;;;;9.43;8.57;;;;;;;;;;4964633;28;20455;-89
2023/05/26 08:00:14;;;;;;;9.57;8.77;;;;;;;;;;4969186;28;20431;-90
2023/05/26 08:02:40;;;;;;;10.90;9.80;;;;;;;;;;4964751;28;20979;-89
2023/05/26 08:05:07;;;;;;;13.20;9.27;;;;;;;;;;4952142;28;20817;-89
2023/05/26 08:07:33;;;;;;;11.90;10.20;;;;;;;;;;4966491;28;20473;-89
2023/05/26 08:09:59;;;;;;;13.60;9.97;;;;;;;;;;4969434;28;20457;-89
2023/05/26 08:12:25;;;;;;;11.17;9.97;;;;;;;;;;4943221;28;21761;-89
2023/05/26 08:14:51;;;;;;;11.47;9.67;;;;;;;;;;4961867;28;20425;-89
2023/05/26 08:17:17;;;;;;;13.80;10.27;;;34.60;40.80;;;;;;4962717;28;20449;-89
2023/05/26 08:19:43;;;;;;;14.30;9.37;;;;;;;;;;4951306;28;20442;-90
2023/05/26 08:22:09;;;;;;;11.10;9.17;;;;;;;;;;4964330;28;20469;-90
2023/05/26 08:24:35;;;;;;;11.10;10.10;;;;;;;;;;4968510;28;20423;-88
2023/05/26 08:27:01;;;;;;;10.40;9.40;;;;;;;;;;4964365;28;20432;-89
2023/05/26 08:29:26;;;;;;;10.13;9.23;;;;;;;;;;4964413;28;21094;-89
2023/05/26 08:31:53;;;;;;;11.97;8.00;;;30.40;44.40;;;;;;4956179;28;20488;-88
2023/05/26 08:34:19;;;;;;;9.23;8.40;;;;;;;;;;4962278;28;20431;-90
2023/05/26 08:36:46;;;;;;;10.70;8.57;;;29.90;47.40;;;;;;4961221;28;20495;-90
2023/05/26 08:39:11;;;;;;;12.70;7.50;;;;;;;;;;4946672;28;20498;-89
2023/05/26 08:42:05;;;;;;;11.50;8.20;;;31.10;46.20;;;;;;4962782;28;20460;-90
2023/05/26 08:44:31;;;;;;;8.50;7.00;;;31.70;46.30;;;;;;4945818;28;20434;-89
2023/05/26 08:46:58;;;;;;;11.87;8.03;;;32.10;45.20;;;;;;4948762;28;20436;-89
2023/05/26 08:49:24;;;;;;;10.53;8.50;;;;;;;;;;4956072;28;20185;-89
2023/05/26 08:52:01;;;;;;;11.73;8.40;;;33.50;42.90;;;;;;4979268;28;20505;-90
2023/05/26 08:54:27;;;;;;;9.57;8.63;;;;;;;;;;4957704;28;20949;-89
2023/05/26 08:56:57;;;;;;;11.00;8.37;;;31.90;44.90;;;;;;4948756;28;20437;-89
2023/05/26 08:59:24;;;;;;;11.20;8.00;;;33.00;44.10;;;;;;4942286;28;20522;-88
2023/05/26 09:01:50;;;;;;;8.93;8.03;;;;;;;;;;4942170;28;20442;-88
2023/05/26 09:04:16;;;;;;;9.03;8.13;;;;;;;;;;4963047;28;20430;-88
2023/05/26 09:06:43;;;;;;;10.20;8.87;;;32.10;45.10;;;;;;4941574;28;20521;-89
2023/05/26 09:09:09;;;;;;;10.33;9.23;;;;;;;;;;4943962;28;20468;-88
2023/05/26 09:11:42;;;;;;;10.23;8.60;;;31.40;45.20;;;;;;4978930;28;20457;-90
2023/05/26 09:14:08;;;;;;;10.10;8.60;;;;;;;;;;4959068;28;20451;-89
2023/05/26 09:16:34;;;;;;;8.77;7.87;;;;;;;;;;4946391;28;20539;-89
2023/05/26 09:19:01;;;;;;;11.40;8.40;;;30.10;47.90;;;;;;4944281;28;20478;-89
2023/05/26 09:21:28;;;;;;;10.73;7.80;;;30.00;48.00;;;;;;4963792;28;20453;-88
2023/05/26 09:23:59;;;;;;;10.90;8.50;;;29.80;47.90;;;;;;4962301;28;20447;-89
2023/05/26 09:26:35;;;;;;;11.67;7.17;;;29.00;49.10;;;;;;4964899;28;20434;-88
2023/05/26 09:29:02;;;;;;;9.83;7.40;;;28.80;47.70;;;;;;4964326;28;22541;-89
2023/05/26 09:31:46;;;;;;;8.00;6.40;;;28.80;48.20;;;;;;4963568;28;20483;-89
2023/05/26 09:34:12;;;;;;;10.03;6.47;;;29.70;49.60;;;;;;4964815;28;20485;-88
2023/05/26 09:36:39;;;;;;;8.73;7.43;;;30.10;46.30;;;;;;4954415;28;20423;-89
2023/05/26 09:39:10;;;;;;;7.97;6.90;;;29.60;47.70;;;;;;4971793;28;20523;-89
2023/05/26 09:41:37;;;;;;;9.43;7.57;;;29.30;48.00;;;;;;4962011;28;20517;-89
2023/05/26 09:44:19;;;;;;;8.73;6.67;;;29.30;48.50;;;;;;4945125;28;20492;-89
2023/05/26 09:46:45;;;;;;;6.70;5.93;;;29.80;46.80;;;;;;4950065;28;20963;-89
2023/05/26 09:49:15;;;;;;;6.67;6.10;;;29.70;47.30;;;;;;4943490;28;20458;-88
2023/05/26 09:51:42;;;;;;;12.33;6.87;;;29.20;48.10;;;;;;4967509;28;20432;-89
2023/05/26 09:54:12;;;;;;;8.07;6.10;;;;;;;;;;4945200;28;20428;-89
2023/05/26 09:56:43;;;;;;;9.00;5.80;;;28.10;49.30;;;;;;4950462;28;22514;-89
2023/05/26 09:59:09;;;;;;;7.70;5.10;;;;;;;;;;4942905;28;20462;-90
2023/05/26 10:01:38;;;;;;;7.87;6.43;;;29.20;50.40;;;;;;4959646;28;21758;-87
2023/05/26 10:04:06;;;;;;;10.37;6.73;;;31.30;47.30;;;;;;4947360;28;20484;-90
2023/05/26 10:06:36;;;;;;;8.13;5.97;;;30.00;46.50;;;;;;4949373;28;20450;-90
2023/05/26 10:09:07;;;;;;;7.70;6.90;;;30.00;47.10;;;;;;4947001;28;20549;-89
2023/05/26 10:11:38;;;;;;;11.37;6.47;;;28.60;51.10;;;;;;4946156;28;20435;-90
2023/05/26 10:14:04;;;;;;;7.30;6.60;;;;;;;;;;4947951;28;20565;-90
2023/05/26 10:16:29;;;;;;;6.33;5.73;;;28.90;49.40;;;;;;4947405;28;20549;-90
2023/05/26 10:18:55;;;;;;;11.30;5.87;;;;;;;;;;4973710;28;20454;-89
2023/05/26 10:21:28;;;;;;;6.97;4.97;;;28.70;50.00;;;;;;4963845;28;20197;-90
2023/05/26 10:24:33;;;;;;;8.97;6.03;;;28.70;50.40;;;;;;4994484;28;20504;-90
2023/05/26 10:27:05;;;;;;;9.90;5.40;;;29.00;49.30;;;;;;4953169;28;20546;-89
2023/05/26 10:29:46;;;;;;;7.57;6.17;;;29.00;50.00;;;;;;4978986;28;20436;-89
2023/05/26 10:32:42;;;;;;;7.10;5.80;;;26.90;49.90;;;;;;4985950;28;20469;-90
2023/05/26 10:35:28;;;;;;;12.50;4.83;;;26.50;50.90;;;;;;4946136;28;20895;-89
2023/05/26 10:38:03;;;;;;;9.23;5.70;;;25.00;54.20;;;;;;4959919;28;20458;-89
2023/05/26 10:40:39;;;;;;;9.23;6.00;;;22.60;56.90;;;;;;4952317;28;20453;-89
2023/05/26 10:43:20;;;;;;;5.00;4.50;;;22.80;58.50;;;;;;4954365;28;20434;-89
2023/05/26 10:45:52;;;;;;;6.67;4.20;;;22.60;60.30;;;;;;4950668;28;20446;-88
2023/05/26 10:48:21;;;;;;;7.30;5.00;;;22.70;61.20;;;;;;4960214;28;20454;-89
2023/05/26 10:50:58;;;;;;;5.93;5.00;;;22.60;60.40;;;;;;4964026;28;20428;-89
2023/05/26 10:53:26;;;;;;;7.33;4.97;;;22.70;59.60;;;;;;4949323;28;20542;-89
2023/05/26 10:55:58;;;;;;;6.40;4.30;;;22.40;60.30;;;;;;4965775;28;20439;-88
2023/05/26 10:58:31;;;;;;;8.47;5.33;;;22.30;60.90;;;;;;4947670;28;21929;-90
2023/05/26 11:01:08;;;;;;;6.13;4.57;;;22.40;64.60;;;;;;4957354;28;20465;-90
2023/05/26 11:03:48;;;;;;;6.10;4.57;;;22.50;62.70;;;;;;4974144;28;20418;-89
2023/05/26 11:06:17;;;;;;;5.80;3.67;;;22.60;65.30;;;;;;4958811;28;20442;-89
2023/05/26 11:08:50;;;;;;;6.80;4.70;;;22.70;62.90;;;;;;4946943;28;20459;-90
2023/05/26 11:11:30;;;;;;;4.93;4.20;;;22.30;61.00;;;;;;4955237;28;20439;-90
2023/05/26 11:14:09;;;;;;;8.20;4.70;;;22.30;62.20;;;;;;4964559;28;20467;-89
2023/05/26 11:16:36;;;;;;;7.57;5.23;;;22.20;60.10;;;;;;4968838;28;20523;-89
2023/05/26 11:19:08;;;;;;;5.60;4.67;;;22.30;62.80;;;;;;4945283;28;20527;-90
2023/05/26 11:21:35;;;;;;;8.70;4.40;;;22.40;64.10;;;;;;4951648;28;20439;-89
2023/05/26 11:24:02;;;;;;;5.83;4.27;;;22.50;61.80;;;;;;4964649;28;20545;-89
2023/05/26 11:26:32;;;;;;;7.87;4.20;;;22.50;63.90;;;;;;4957420;28;20816;-89
2023/05/26 11:29:01;;;;;;;15.27;4.70;;;22.50;64.60;;;;;;4948276;28;21065;-89
2023/05/26 11:31:27;;;;;;;8.80;4.43;;;22.60;61.60;;;;;;4961371;28;20882;-89
2023/05/26 11:33:54;;;;;;;7.93;4.90;;;22.70;59.50;;;;;;4946896;28;21503;-89
2023/05/26 11:36:20;;;;;;;14.83;4.80;;;22.70;60.00;;;;;;4953373;28;20505;-89
2023/05/26 11:38:56;;;;;;;6.47;3.07;;;23.30;62.20;;;;;;4964975;28;20925;-89
2023/05/26 11:41:25;;;;;;;6.73;4.40;;;;;;;;;;4968049;28;20443;-90
2023/05/26 11:43:53;;;;;;;7.67;4.70;;;;;;;;;;4952149;28;20464;-90
2023/05/26 11:46:20;;;;;;;8.50;4.77;;;;;;;;;;4962845;28;20820;-89
2023/05/26 11:48:46;;;;;;;7.07;3.90;;;;;;;;;;4949081;28;20458;-90
2023/05/26 11:51:22;;;;;;;8.40;5.07;;;23.20;63.20;;;;;;4947222;28;20473;-90
2023/05/26 11:53:53;;;;;;;6.07;4.50;;;23.00;66.50;;;;;;4951841;28;20478;-89
2023/05/26 11:56:18;;;;;;;8.23;4.73;;;23.10;64.00;;;;;;4968098;28;20446;-89
2023/05/26 11:58:54;;;;;;;5.23;4.40;;;23.10;61.80;;;;;;4953023;28;20482;-89
2023/05/26 12:01:25;;;;;;;7.87;4.57;;;23.20;61.60;;;;;;4949391;28;21102;-90
2023/05/26 12:03:51;;;;;;;4.50;4.07;;;23.30;60.40;;;;;;4940804;28;20453;-89
2023/05/26 12:06:23;;;;;;;6.47;4.50;;;23.40;63.30;;;;;;4956139;28;20432;-89
2023/05/26 12:08:55;;;;;;;5.53;3.93;;;23.30;64.50;;;;;;4935346;28;20569;-89
2023/05/26 12:11:22;;;;;;;7.17;4.80;;;23.10;65.90;;;;;;4939638;28;20438;-89
2023/05/26 12:13:55;;;;;;;10.33;4.97;;;23.10;67.30;;;;;;4946390;28;20463;-89
2023/05/26 12:16:31;;;;;;;6.13;4.50;;;23.20;66.20;;;;;;4961740;28;20466;-89
2023/05/26 12:18:59;;;;;;;6.10;4.17;;;23.30;66.80;;;;;;4938578;28;20463;-90
2023/05/26 12:21:26;;;;;;;7.40;4.67;;;23.60;63.20;;;;;;4955842;28;20574;-89
2023/05/26 12:23:55;;;;;;;7.53;4.00;;;23.60;64.00;;;;;;4950832;28;20447;-87
2023/05/26 12:26:23;;;;;;;6.30;4.43;;;23.40;67.70;;;;;;4931824;28;20775;-86
2023/05/26 12:29:09;;;;;;;7.60;4.00;;;23.40;68.50;;;;;;4954069;28;20769;-89
2023/05/26 12:31:52;;;;;;;5.03;3.90;;;23.50;64.00;;;;;;4954309;28;20452;-88
2023/05/26 12:34:22;;;;;;;8.27;4.50;;;23.40;63.30;;;;;;4952860;28;20446;-89
2023/05/26 12:36:48;;;;;;;8.53;4.27;;;;;;;;;;4935376;28;20446;-88
2023/05/26 12:39:15;;;;;;;8.80;4.20;;;23.70;62.30;;;;;;4952244;28;21230;-89
2023/05/26 12:41:41;;;;;;;5.73;3.70;;;;;;;;;;4953276;28;20433;-88
2023/05/26 12:44:08;;;;;;;6.30;4.37;;;23.60;63.00;;;;;;4936561;28;20439;-88
2023/05/26 12:46:34;;;;;;;6.50;4.10;;;23.80;65.60;;;;;;4927722;28;20482;-87
2023/05/26 12:49:00;;;;;;;4.43;3.57;;;;;;;;;;4954132;28;20809;-87
2023/05/26 12:51:26;;;;;;;6.63;4.33;;;;;;;;;;4948377;28;20441;-88
2023/05/26 12:53:52;;;;;;;6.77;4.40;;;;;;;;;;4953786;28;20554;-88
2023/05/26 12:56:18;;;;;;;7.07;4.23;;;;;;;;;;4942641;28;20434;-86
2023/05/26 12:58:45;;;;;;;5.47;4.27;;;;;;;;;;4930724;28;20498;-87
2023/05/26 13:01:12;;;;;;;7.83;4.17;;;23.80;63.80;;;;;;4935955;28;20440;-87
2023/05/26 13:03:39;;;;;;;10.20;4.40;;;23.70;62.30;;;;;;4944524;28;20474;-88
2023/05/26 13:06:06;;;;;;;8.77;5.13;;;23.70;63.00;;;;;;4973576;28;20438;-86
2023/05/26 13:08:32;;;;;;;5.37;4.10;;;;;;;;;;4961842;28;20486;-85
2023/05/26 13:10:58;;;;;;;7.10;4.20;;;;;;;;;;4942009;28;20433;-88
2023/05/26 13:13:24;;;;;;;8.77;4.67;;;23.50;62.10;;;;;;4951892;28;20472;-88
2023/05/26 13:15:51;;;;;;;5.20;4.27;;;23.70;62.60;;;;;;4950245;28;20432;-88
2023/05/26 13:18:16;;;;;;;5.13;4.00;;;23.80;59.20;;;;;;4943503;28;20459;-88
2023/05/26 13:20:42;;;;;;;5.97;3.73;;;23.70;59.00;;;;;;4937116;28;20944;-87
2023/05/26 13:23:08;;;;;;;6.60;4.07;;;23.70;59.60;;;;;;4953484;28;20199;-88
2023/05/26 13:25:34;;;;;;;5.53;3.70;;;;;;;;;;4944500;28;20189;-88
2023/05/26 13:28:00;;;;;;;6.07;3.70;;;23.60;58.10;;;;;;4943411;28;20544;-88